Aiea, Hawaii
Current Conditions -  °F | °C
As of 10:53 AM on Sunday 21 Dec 2014 (Local Time) from PHNL Reporting Station
Few Clouds Few Clouds  
Wind Chill: 82°   Ceiling: Unl
Heat Index: 82°   Visibility: 10mi
Dew Point: 58°   Wind: 0mph
Humidity: 44%   Direction: NA
Pressure: 30.01"   Gusts: NA
Location:  21.38°N, 157.93°W
Report Text: PHNL 212053Z 00000KT 10SM FEW045 28/14 A3001 RMK AO2 SLP162 T02780144 58005
Loading
Personal Weather Stations






























Interactive Weather Map New forecast layout! Learn more

10-Day Weather Forecast

Advertisements
Track Severe Weather on mobile